Portada
METAR-TAF:

METAR-TAF

Aeroports :

Chiang Mai, Tailàndia

latitud: 18-47N, longitud: 098-59E, altitud: 312 m

Observació

L'informe es va fer fa 21 minuts, a les 03:30 UTC
Vent 3 kt del Nord
Temperatura 28°C
Humitat 74%
Pressió 1020 hPa
Visibilitat 10 km o més
Núvols disperses a una alçada de 3500 ft

METAR: VTCC 140330Z 36003KT 9999 SCT035 28/23 Q1020 NOSIG

Hora: 10:51 (03:51 UTC)

Pronòstic

L'informe es va fer fa 4 hores i 51 minuts, a les 23:00 UTC
Pronòstic vàlid del 14 a les 00 UTC al 15 a les 06 UTC
Vent 5 kt del Nord/Nord-Est
Visibilitat 10 km o més
Cel ennuvolat a una alçada de 3500 ft
Temporalment
l' 14 a les 06 UTC al 14 a les 12 UTC
Vent 15 kt amb direcció variable amb ràfegues de 25 kt
Visibilitat: 5000 m
Escasses núvols a una alçada de 2000 ft, Cumulonimbus.
Cel ennuvolat a una alçada de 3500 ft
tempesta, pluja

TAF: VTCC 132300Z 1400/1506 03005KT 9999 BKN035 TEMPO 1406/1412 VRB15G25KT 5000 TSRA FEW020CB BKN035

Observacions i pronòstics meteorològics de més de 4000 aeroports (METAR i TAF).

Les estacions disponibles són els punts grocs i vermells al mapa.

Posi el ratolí al punt desitjat per veure el nom de l'estació.

Feu clic per veure les observacions i els pronòstics meteorològics.

Per canviar el mapa: feu clic els botons verds amb una creu de color negre per apropar; al botó verd amb un guió per allunyar la imatge; o en les fletxes verdes per a mapes adjacents.


METAR-TAF: